SPQU/AQP METAR and TAF weather

Enter ICAO airport designator
Station Type Date Time Source
SPQU METAR 2021/07/30 03:00 UTC NOAA

SPQU 300300Z 03004KT CAVOK 12/M07 Q1028 RMK PP000


Station Type Date Time Source
SPQU Decoded METAR 2021/07/30 03:00 UTC NOAA

Arequipa, Peru (SPQU) 16-19S 071-33W 2539M
Jul 29, 2021 - 11:00 PM EDT / 2021.07.30 0300 UTC
Wind: from the NNE (030 degrees) at 5 MPH (4 KT):0
Visibility: greater than 7 mile(s):0
Temperature: 53 F (12 C)
Dew Point: 19 F (-7 C)
Relative Humidity: 25%
Pressure (altimeter): 30.36 in. Hg (1028 hPa)
ob: SPQU 300300Z 03004KT CAVOK 12/M07 Q1028 RMK PP000
cycle: 3

Station Type Date Time Source
SPQU TAF 2021/07/29 18:35 UTC NOAA

TAF SPQU 291700Z 2918/3018 26010KT CAVOK TX22/2919Z TN09/3011Z
BECMG 3000/3002 04006KT
FM301500 25008KT CAVOK

Example: see airport list